sensor_id;sensor_type;location;lat;lon;timestamp;P1;durP1;ratioP1;P2;durP2;ratioP2
61640;SDS011;62201;49.966;8.342;2023-04-15T00:00:53;17.47;;;5.00;;
61640;SDS011;62201;49.966;8.342;2023-04-15T00:03:19;13.77;;;5.33;;
61640;SDS011;62201;49.966;8.342;2023-04-15T00:05:44;19.87;;;5.80;;
61640;SDS011;62201;49.966;8.342;2023-04-15T00:08:10;12.63;;;5.53;;
61640;SDS011;62201;49.966;8.342;2023-04-15T00:10:35;20.13;;;7.27;;
61640;SDS011;62201;49.966;8.342;2023-04-15T00:13:00;18.27;;;6.07;;
61640;SDS011;62201;49.966;8.342;2023-04-15T00:15:26;19.60;;;5.30;;
61640;SDS011;62201;49.966;8.342;2023-04-15T00:17:52;14.37;;;4.83;;
61640;SDS011;62201;49.966;8.342;2023-04-15T00:20:17;13.70;;;5.00;;
61640;SDS011;62201;49.966;8.342;2023-04-15T00:22:43;10.40;;;4.30;;
61640;SDS011;62201;49.966;8.342;2023-04-15T00:25:08;11.67;;;4.60;;
61640;SDS011;62201;49.966;8.342;2023-04-15T00:27:34;13.07;;;5.10;;
61640;SDS011;62201;49.966;8.342;2023-04-15T00:29:59;14.33;;;5.37;;
61640;SDS011;62201;49.966;8.342;2023-04-15T00:32:24;18.97;;;6.03;;
61640;SDS011;62201;49.966;8.342;2023-04-15T00:34:50;17.03;;;6.10;;
61640;SDS011;62201;49.966;8.342;2023-04-15T00:37:15;38.83;;;8.70;;
61640;SDS011;62201;49.966;8.342;2023-04-15T00:39:41;16.93;;;7.20;;
61640;SDS011;62201;49.966;8.342;2023-04-15T00:42:06;16.57;;;5.50;;
61640;SDS011;62201;49.966;8.342;2023-04-15T00:44:31;15.83;;;6.03;;
61640;SDS011;62201;49.966;8.342;2023-04-15T00:46:59;13.97;;;4.43;;
61640;SDS011;62201;49.966;8.342;2023-04-15T00:49:25;10.10;;;4.40;;
61640;SDS011;62201;49.966;8.342;2023-04-15T00:51:51;17.23;;;4.50;;
61640;SDS011;62201;49.966;8.342;2023-04-15T00:54:17;12.10;;;3.83;;
61640;SDS011;62201;49.966;8.342;2023-04-15T00:56:42;14.40;;;4.20;;
61640;SDS011;62201;49.966;8.342;2023-04-15T00:59:08;14.03;;;4.23;;
61640;SDS011;62201;49.966;8.342;2023-04-15T01:01:34;10.93;;;4.30;;
61640;SDS011;62201;49.966;8.342;2023-04-15T01:04:00;13.00;;;3.97;;
61640;SDS011;62201;49.966;8.342;2023-04-15T01:06:26;13.17;;;4.37;;
61640;SDS011;62201;49.966;8.342;2023-04-15T01:08:52;11.13;;;4.43;;
61640;SDS011;62201;49.966;8.342;2023-04-15T01:11:18;12.77;;;5.57;;
61640;SDS011;62201;49.966;8.342;2023-04-15T01:13:45;12.97;;;5.20;;
61640;SDS011;62201;49.966;8.342;2023-04-15T01:16:11;11.13;;;5.07;;
61640;SDS011;62201;49.966;8.342;2023-04-15T01:18:38;10.73;;;4.50;;
61640;SDS011;62201;49.966;8.342;2023-04-15T01:21:04;11.27;;;4.73;;
61640;SDS011;62201;49.966;8.342;2023-04-15T01:23:31;12.73;;;4.13;;
61640;SDS011;62201;49.966;8.342;2023-04-15T01:25:56;13.93;;;4.67;;
61640;SDS011;62201;49.966;8.342;2023-04-15T01:28:23;16.70;;;4.27;;
61640;SDS011;62201;49.966;8.342;2023-04-15T01:30:49;16.70;;;4.17;;
61640;SDS011;62201;49.966;8.342;2023-04-15T01:33:14;13.40;;;4.00;;
61640;SDS011;62201;49.966;8.342;2023-04-15T01:35:40;12.00;;;4.30;;
61640;SDS011;62201;49.966;8.342;2023-04-15T01:38:08;12.47;;;4.50;;
61640;SDS011;62201;49.966;8.342;2023-04-15T01:40:35;14.60;;;3.93;;
61640;SDS011;62201;49.966;8.342;2023-04-15T01:43:01;17.27;;;4.27;;
61640;SDS011;62201;49.966;8.342;2023-04-15T01:45:27;16.67;;;4.63;;
61640;SDS011;62201;49.966;8.342;2023-04-15T01:47:53;12.70;;;4.20;;
61640;SDS011;62201;49.966;8.342;2023-04-15T01:50:18;18.73;;;4.70;;
61640;SDS011;62201;49.966;8.342;2023-04-15T01:52:44;12.87;;;4.30;;
61640;SDS011;62201;49.966;8.342;2023-04-15T01:55:11;11.97;;;4.50;;
61640;SDS011;62201;49.966;8.342;2023-04-15T01:57:36;12.07;;;5.17;;
61640;SDS011;62201;49.966;8.342;2023-04-15T02:00:02;12.67;;;4.67;;
61640;SDS011;62201;49.966;8.342;2023-04-15T02:02:27;14.00;;;5.00;;
61640;SDS011;62201;49.966;8.342;2023-04-15T02:04:53;15.73;;;4.93;;
61640;SDS011;62201;49.966;8.342;2023-04-15T02:07:18;13.40;;;5.03;;
61640;SDS011;62201;49.966;8.342;2023-04-15T02:09:44;12.90;;;4.70;;
61640;SDS011;62201;49.966;8.342;2023-04-15T02:12:10;15.33;;;5.03;;
61640;SDS011;62201;49.966;8.342;2023-04-15T02:14:35;10.90;;;4.20;;
61640;SDS011;62201;49.966;8.342;2023-04-15T02:17:01;14.23;;;4.83;;
61640;SDS011;62201;49.966;8.342;2023-04-15T02:19:31;22.13;;;5.40;;
61640;SDS011;62201;49.966;8.342;2023-04-15T02:21:57;8.97;;;3.87;;
61640;SDS011;62201;49.966;8.342;2023-04-15T02:24:22;12.90;;;4.27;;
61640;SDS011;62201;49.966;8.342;2023-04-15T02:26:48;11.13;;;4.73;;
61640;SDS011;62201;49.966;8.342;2023-04-15T02:29:13;13.10;;;4.47;;
61640;SDS011;62201;49.966;8.342;2023-04-15T02:31:38;10.20;;;4.40;;
61640;SDS011;62201;49.966;8.342;2023-04-15T02:34:06;12.20;;;4.37;;
61640;SDS011;62201;49.966;8.342;2023-04-15T02:36:32;13.07;;;4.57;;
61640;SDS011;62201;49.966;8.342;2023-04-15T02:38:58;11.17;;;5.03;;
61640;SDS011;62201;49.966;8.342;2023-04-15T02:41:24;14.93;;;4.90;;
61640;SDS011;62201;49.966;8.342;2023-04-15T02:43:51;13.13;;;4.60;;
61640;SDS011;62201;49.966;8.342;2023-04-15T02:46:17;15.47;;;4.97;;
61640;SDS011;62201;49.966;8.342;2023-04-15T02:48:42;11.93;;;4.63;;
61640;SDS011;62201;49.966;8.342;2023-04-15T02:51:11;15.77;;;4.80;;
61640;SDS011;62201;49.966;8.342;2023-04-15T02:53:38;11.83;;;4.27;;
61640;SDS011;62201;49.966;8.342;2023-04-15T02:56:03;11.97;;;3.90;;
61640;SDS011;62201;49.966;8.342;2023-04-15T02:58:30;18.03;;;4.77;;
61640;SDS011;62201;49.966;8.342;2023-04-15T03:00:55;8.73;;;4.10;;
61640;SDS011;62201;49.966;8.342;2023-04-15T03:03:21;8.57;;;3.90;;
61640;SDS011;62201;49.966;8.342;2023-04-15T03:05:46;9.03;;;4.33;;
61640;SDS011;62201;49.966;8.342;2023-04-15T03:08:12;10.03;;;4.37;;
61640;SDS011;62201;49.966;8.342;2023-04-15T03:10:38;14.63;;;4.73;;
61640;SDS011;62201;49.966;8.342;2023-04-15T03:13:04;24.13;;;5.03;;
61640;SDS011;62201;49.966;8.342;2023-04-15T03:15:31;19.50;;;4.30;;
61640;SDS011;62201;49.966;8.342;2023-04-15T03:17:56;15.17;;;4.83;;
61640;SDS011;62201;49.966;8.342;2023-04-15T03:20:22;11.90;;;4.10;;
61640;SDS011;62201;49.966;8.342;2023-04-15T03:22:48;10.20;;;4.23;;
61640;SDS011;62201;49.966;8.342;2023-04-15T03:25:13;12.53;;;4.50;;
61640;SDS011;62201;49.966;8.342;2023-04-15T03:27:38;10.53;;;3.90;;
61640;SDS011;62201;49.966;8.342;2023-04-15T03:30:04;12.80;;;3.87;;
61640;SDS011;62201;49.966;8.342;2023-04-15T03:32:30;10.77;;;3.67;;
61640;SDS011;62201;49.966;8.342;2023-04-15T03:34:56;11.00;;;3.60;;
61640;SDS011;62201;49.966;8.342;2023-04-15T03:37:21;11.27;;;3.70;;
61640;SDS011;62201;49.966;8.342;2023-04-15T03:39:47;10.97;;;4.03;;
61640;SDS011;62201;49.966;8.342;2023-04-15T03:42:12;11.20;;;4.03;;
61640;SDS011;62201;49.966;8.342;2023-04-15T03:44:37;16.50;;;3.83;;
61640;SDS011;62201;49.966;8.342;2023-04-15T03:47:03;8.13;;;3.87;;
61640;SDS011;62201;49.966;8.342;2023-04-15T03:49:28;12.83;;;4.17;;
61640;SDS011;62201;49.966;8.342;2023-04-15T03:51:53;9.70;;;3.33;;
61640;SDS011;62201;49.966;8.342;2023-04-15T03:54:19;11.50;;;4.20;;
61640;SDS011;62201;49.966;8.342;2023-04-15T03:56:44;13.40;;;3.77;;
61640;SDS011;62201;49.966;8.342;2023-04-15T03:59:10;12.57;;;4.03;;
61640;SDS011;62201;49.966;8.342;2023-04-15T04:01:35;11.07;;;3.43;;
61640;SDS011;62201;49.966;8.342;2023-04-15T04:04:00;11.67;;;3.33;;
61640;SDS011;62201;49.966;8.342;2023-04-15T04:06:26;12.23;;;3.50;;
61640;SDS011;62201;49.966;8.342;2023-04-15T04:08:51;9.53;;;3.37;;
61640;SDS011;62201;49.966;8.342;2023-04-15T04:11:16;11.00;;;3.40;;
61640;SDS011;62201;49.966;8.342;2023-04-15T04:13:42;14.83;;;3.33;;
61640;SDS011;62201;49.966;8.342;2023-04-15T04:16:07;7.60;;;3.70;;
61640;SDS011;62201;49.966;8.342;2023-04-15T04:18:32;9.00;;;3.20;;
61640;SDS011;62201;49.966;8.342;2023-04-15T04:20:58;8.53;;;3.03;;
61640;SDS011;62201;49.966;8.342;2023-04-15T04:23:24;10.53;;;3.33;;
61640;SDS011;62201;49.966;8.342;2023-04-15T04:25:50;10.40;;;3.33;;
61640;SDS011;62201;49.966;8.342;2023-04-15T04:28:16;8.03;;;3.10;;
61640;SDS011;62201;49.966;8.342;2023-04-15T04:30:42;10.13;;;3.80;;
61640;SDS011;62201;49.966;8.342;2023-04-15T04:33:07;8.40;;;4.33;;
61640;SDS011;62201;49.966;8.342;2023-04-15T04:35:32;11.70;;;3.73;;
61640;SDS011;62201;49.966;8.342;2023-04-15T04:37:59;9.53;;;3.83;;
61640;SDS011;62201;49.966;8.342;2023-04-15T04:40:25;9.40;;;2.93;;
61640;SDS011;62201;49.966;8.342;2023-04-15T04:42:51;10.80;;;3.30;;
61640;SDS011;62201;49.966;8.342;2023-04-15T04:45:17;11.80;;;3.67;;
61640;SDS011;62201;49.966;8.342;2023-04-15T04:47:42;7.40;;;3.03;;
61640;SDS011;62201;49.966;8.342;2023-04-15T04:50:08;10.50;;;3.20;;
61640;SDS011;62201;49.966;8.342;2023-04-15T04:52:34;12.57;;;3.10;;
61640;SDS011;62201;49.966;8.342;2023-04-15T04:54:59;7.00;;;3.00;;
61640;SDS011;62201;49.966;8.342;2023-04-15T04:57:25;11.63;;;3.30;;
61640;SDS011;62201;49.966;8.342;2023-04-15T04:59:50;9.00;;;3.13;;
61640;SDS011;62201;49.966;8.342;2023-04-15T05:02:15;11.53;;;2.80;;
61640;SDS011;62201;49.966;8.342;2023-04-15T05:04:41;5.40;;;2.40;;
61640;SDS011;62201;49.966;8.342;2023-04-15T05:07:06;8.37;;;3.17;;
61640;SDS011;62201;49.966;8.342;2023-04-15T05:09:32;11.13;;;2.80;;
61640;SDS011;62201;49.966;8.342;2023-04-15T05:12:00;9.30;;;3.03;;
61640;SDS011;62201;49.966;8.342;2023-04-15T05:14:25;6.30;;;2.80;;
61640;SDS011;62201;49.966;8.342;2023-04-15T05:16:51;7.90;;;2.97;;
61640;SDS011;62201;49.966;8.342;2023-04-15T05:19:16;8.73;;;3.60;;
61640;SDS011;62201;49.966;8.342;2023-04-15T05:21:41;12.90;;;3.40;;
61640;SDS011;62201;49.966;8.342;2023-04-15T05:24:07;8.83;;;2.60;;
61640;SDS011;62201;49.966;8.342;2023-04-15T05:26:32;10.20;;;3.20;;
61640;SDS011;62201;49.966;8.342;2023-04-15T05:28:58;8.40;;;3.13;;
61640;SDS011;62201;49.966;8.342;2023-04-15T05:31:23;10.47;;;3.27;;
61640;SDS011;62201;49.966;8.342;2023-04-15T05:33:48;9.63;;;3.57;;
61640;SDS011;62201;49.966;8.342;2023-04-15T05:36:14;10.40;;;2.90;;
61640;SDS011;62201;49.966;8.342;2023-04-15T05:38:39;11.83;;;3.13;;
61640;SDS011;62201;49.966;8.342;2023-04-15T05:41:05;7.43;;;3.07;;
61640;SDS011;62201;49.966;8.342;2023-04-15T05:43:30;8.37;;;2.90;;
61640;SDS011;62201;49.966;8.342;2023-04-15T05:45:56;9.70;;;2.83;;
61640;SDS011;62201;49.966;8.342;2023-04-15T05:48:21;10.77;;;3.37;;
61640;SDS011;62201;49.966;8.342;2023-04-15T05:50:46;7.87;;;2.90;;
61640;SDS011;62201;49.966;8.342;2023-04-15T05:53:12;11.93;;;2.97;;
61640;SDS011;62201;49.966;8.342;2023-04-15T05:55:37;11.63;;;2.83;;
61640;SDS011;62201;49.966;8.342;2023-04-15T05:58:03;8.00;;;2.50;;
61640;SDS011;62201;49.966;8.342;2023-04-15T06:00:28;9.33;;;2.83;;
61640;SDS011;62201;49.966;8.342;2023-04-15T06:02:54;10.77;;;2.80;;
61640;SDS011;62201;49.966;8.342;2023-04-15T06:05:20;6.90;;;2.73;;
61640;SDS011;62201;49.966;8.342;2023-04-15T06:07:46;8.87;;;3.07;;
61640;SDS011;62201;49.966;8.342;2023-04-15T06:10:11;7.77;;;2.90;;
61640;SDS011;62201;49.966;8.342;2023-04-15T06:12:37;7.27;;;2.87;;
61640;SDS011;62201;49.966;8.342;2023-04-15T06:15:02;8.87;;;3.00;;
61640;SDS011;62201;49.966;8.342;2023-04-15T06:17:28;7.00;;;2.70;;
61640;SDS011;62201;49.966;8.342;2023-04-15T06:19:53;8.00;;;2.80;;
61640;SDS011;62201;49.966;8.342;2023-04-15T06:22:23;11.20;;;2.97;;
61640;SDS011;62201;49.966;8.342;2023-04-15T06:24:48;8.90;;;3.23;;
61640;SDS011;62201;49.966;8.342;2023-04-15T06:27:17;9.37;;;3.23;;
61640;SDS011;62201;49.966;8.342;2023-04-15T06:29:42;11.40;;;3.63;;
61640;SDS011;62201;49.966;8.342;2023-04-15T06:32:08;10.30;;;3.00;;
61640;SDS011;62201;49.966;8.342;2023-04-15T06:34:34;9.23;;;3.03;;
61640;SDS011;62201;49.966;8.342;2023-04-15T06:36:59;8.00;;;2.90;;
61640;SDS011;62201;49.966;8.342;2023-04-15T06:39:25;7.10;;;2.80;;
61640;SDS011;62201;49.966;8.342;2023-04-15T06:41:50;6.10;;;2.73;;
61640;SDS011;62201;49.966;8.342;2023-04-15T06:44:16;7.07;;;2.73;;
61640;SDS011;62201;49.966;8.342;2023-04-15T06:46:42;10.23;;;3.00;;
61640;SDS011;62201;49.966;8.342;2023-04-15T06:49:08;6.10;;;2.80;;
61640;SDS011;62201;49.966;8.342;2023-04-15T06:51:35;8.13;;;2.97;;
61640;SDS011;62201;49.966;8.342;2023-04-15T06:54:01;7.77;;;3.17;;
61640;SDS011;62201;49.966;8.342;2023-04-15T06:56:29;6.57;;;2.70;;
61640;SDS011;62201;49.966;8.342;2023-04-15T06:58:55;7.47;;;2.90;;
61640;SDS011;62201;49.966;8.342;2023-04-15T07:01:21;7.77;;;2.60;;
61640;SDS011;62201;49.966;8.342;2023-04-15T07:03:46;9.87;;;3.20;;
61640;SDS011;62201;49.966;8.342;2023-04-15T07:06:12;10.43;;;3.10;;
61640;SDS011;62201;49.966;8.342;2023-04-15T07:08:37;9.73;;;3.20;;
61640;SDS011;62201;49.966;8.342;2023-04-15T07:11:04;9.77;;;2.87;;
61640;SDS011;62201;49.966;8.342;2023-04-15T07:13:30;11.13;;;2.93;;
61640;SDS011;62201;49.966;8.342;2023-04-15T07:15:56;7.40;;;2.90;;
61640;SDS011;62201;49.966;8.342;2023-04-15T07:18:22;15.13;;;3.15;;
61640;SDS011;62201;49.966;8.342;2023-04-15T07:20:47;9.60;;;3.17;;
61640;SDS011;62201;49.966;8.342;2023-04-15T07:23:13;7.97;;;3.33;;
61640;SDS011;62201;49.966;8.342;2023-04-15T07:25:38;11.40;;;2.95;;
61640;SDS011;62201;49.966;8.342;2023-04-15T07:28:04;8.73;;;2.97;;
61640;SDS011;62201;49.966;8.342;2023-04-15T07:30:29;7.05;;;3.13;;
61640;SDS011;62201;49.966;8.342;2023-04-15T07:32:54;7.63;;;2.55;;
61640;SDS011;62201;49.966;8.342;2023-04-15T07:35:20;8.43;;;3.03;;
61640;SDS011;62201;49.966;8.342;2023-04-15T07:37:46;14.82;;;3.40;;
61640;SDS011;62201;49.966;8.342;2023-04-15T07:40:12;8.75;;;2.80;;
61640;SDS011;62201;49.966;8.342;2023-04-15T07:42:38;11.27;;;3.00;;
61640;SDS011;62201;49.966;8.342;2023-04-15T07:45:04;7.22;;;2.85;;
61640;SDS011;62201;49.966;8.342;2023-04-15T07:47:30;8.50;;;2.80;;
61640;SDS011;62201;49.966;8.342;2023-04-15T07:49:56;8.07;;;2.83;;
61640;SDS011;62201;49.966;8.342;2023-04-15T07:52:21;7.80;;;2.60;;
61640;SDS011;62201;49.966;8.342;2023-04-15T07:54:46;7.72;;;2.45;;
61640;SDS011;62201;49.966;8.342;2023-04-15T07:57:12;7.75;;;2.40;;
61640;SDS011;62201;49.966;8.342;2023-04-15T07:59:37;6.40;;;2.17;;
61640;SDS011;62201;49.966;8.342;2023-04-15T08:02:03;7.40;;;2.78;;
61640;SDS011;62201;49.966;8.342;2023-04-15T08:04:28;8.15;;;2.53;;
61640;SDS011;62201;49.966;8.342;2023-04-15T08:06:55;7.13;;;2.53;;
61640;SDS011;62201;49.966;8.342;2023-04-15T08:09:20;7.30;;;2.40;;
61640;SDS011;62201;49.966;8.342;2023-04-15T08:11:47;5.85;;;2.50;;
61640;SDS011;62201;49.966;8.342;2023-04-15T08:14:13;7.38;;;2.42;;
61640;SDS011;62201;49.966;8.342;2023-04-15T08:16:38;8.13;;;2.70;;
61640;SDS011;62201;49.966;8.342;2023-04-15T08:19:04;5.68;;;2.15;;
61640;SDS011;62201;49.966;8.342;2023-04-15T08:21:30;7.45;;;2.58;;
61640;SDS011;62201;49.966;8.342;2023-04-15T08:23:55;5.00;;;2.22;;
61640;SDS011;62201;49.966;8.342;2023-04-15T08:26:21;7.78;;;2.40;;
61640;SDS011;62201;49.966;8.342;2023-04-15T08:28:47;8.23;;;2.50;;
61640;SDS011;62201;49.966;8.342;2023-04-15T08:31:13;7.35;;;2.40;;
61640;SDS011;62201;49.966;8.342;2023-04-15T08:33:40;7.55;;;2.03;;
61640;SDS011;62201;49.966;8.342;2023-04-15T08:36:05;7.68;;;2.70;;
61640;SDS011;62201;49.966;8.342;2023-04-15T08:38:31;8.60;;;2.50;;
61640;SDS011;62201;49.966;8.342;2023-04-15T08:40:57;6.40;;;2.83;;
61640;SDS011;62201;49.966;8.342;2023-04-15T08:43:27;5.78;;;2.45;;
61640;SDS011;62201;49.966;8.342;2023-04-15T08:46:05;5.45;;;2.33;;
61640;SDS011;62201;49.966;8.342;2023-04-15T08:48:34;5.43;;;2.00;;
61640;SDS011;62201;49.966;8.342;2023-04-15T08:51:03;5.68;;;2.50;;
61640;SDS011;62201;49.966;8.342;2023-04-15T08:53:29;3.90;;;2.30;;
61640;SDS011;62201;49.966;8.342;2023-04-15T08:55:55;4.95;;;2.25;;
61640;SDS011;62201;49.966;8.342;2023-04-15T08:58:22;5.10;;;2.38;;
61640;SDS011;62201;49.966;8.342;2023-04-15T09:00:48;7.53;;;2.63;;
61640;SDS011;62201;49.966;8.342;2023-04-15T09:03:14;7.72;;;2.55;;
61640;SDS011;62201;49.966;8.342;2023-04-15T09:05:41;10.82;;;2.80;;
61640;SDS011;62201;49.966;8.342;2023-04-15T09:08:07;5.50;;;2.90;;
61640;SDS011;62201;49.966;8.342;2023-04-15T09:10:32;9.07;;;2.92;;
61640;SDS011;62201;49.966;8.342;2023-04-15T09:12:58;4.18;;;2.70;;
61640;SDS011;62201;49.966;8.342;2023-04-15T09:15:24;6.85;;;2.45;;
61640;SDS011;62201;49.966;8.342;2023-04-15T09:20:21;6.95;;;2.72;;
61640;SDS011;62201;49.966;8.342;2023-04-15T09:22:48;5.55;;;2.33;;
61640;SDS011;62201;49.966;8.342;2023-04-15T09:27:49;5.78;;;2.28;;
61640;SDS011;62201;49.966;8.342;2023-04-15T09:30:16;8.23;;;2.40;;
61640;SDS011;62201;49.966;8.342;2023-04-15T09:32:52;5.07;;;2.70;;
61640;SDS011;62201;49.966;8.342;2023-04-15T09:35:19;5.72;;;2.55;;
61640;SDS011;62201;49.966;8.342;2023-04-15T09:37:46;3.95;;;2.20;;
61640;SDS011;62201;49.966;8.342;2023-04-15T09:40:12;6.30;;;2.45;;
61640;SDS011;62201;49.966;8.342;2023-04-15T09:42:53;5.85;;;2.50;;
61640;SDS011;62201;49.966;8.342;2023-04-15T09:45:20;7.38;;;2.45;;
61640;SDS011;62201;49.966;8.342;2023-04-15T09:47:45;7.22;;;2.50;;
61640;SDS011;62201;49.966;8.342;2023-04-15T09:50:11;6.93;;;2.80;;
61640;SDS011;62201;49.966;8.342;2023-04-15T09:52:40;4.78;;;2.50;;
61640;SDS011;62201;49.966;8.342;2023-04-15T09:55:07;5.57;;;2.47;;
61640;SDS011;62201;49.966;8.342;2023-04-15T09:57:33;8.95;;;2.53;;
61640;SDS011;62201;49.966;8.342;2023-04-15T10:00:01;7.60;;;2.47;;
61640;SDS011;62201;49.966;8.342;2023-04-15T10:02:27;7.07;;;2.40;;
61640;SDS011;62201;49.966;8.342;2023-04-15T10:04:54;6.60;;;2.40;;
61640;SDS011;62201;49.966;8.342;2023-04-15T10:07:21;6.97;;;2.00;;
61640;SDS011;62201;49.966;8.342;2023-04-15T10:09:49;5.10;;;1.90;;
61640;SDS011;62201;49.966;8.342;2023-04-15T10:12:15;6.32;;;1.67;;
61640;SDS011;62201;49.966;8.342;2023-04-15T10:14:42;4.55;;;2.03;;
61640;SDS011;62201;49.966;8.342;2023-04-15T10:17:09;3.83;;;0.95;;
61640;SDS011;62201;49.966;8.342;2023-04-15T10:19:36;2.03;;;0.80;;
61640;SDS011;62201;49.966;8.342;2023-04-15T10:22:02;2.47;;;1.23;;
61640;SDS011;62201;49.966;8.342;2023-04-15T10:24:31;3.70;;;1.00;;
61640;SDS011;62201;49.966;8.342;2023-04-15T10:26:57;3.03;;;1.08;;
61640;SDS011;62201;49.966;8.342;2023-04-15T10:29:24;2.90;;;1.00;;
61640;SDS011;62201;49.966;8.342;2023-04-15T10:31:51;4.25;;;1.10;;
61640;SDS011;62201;49.966;8.342;2023-04-15T10:34:18;2.45;;;1.13;;
61640;SDS011;62201;49.966;8.342;2023-04-15T10:36:44;2.17;;;0.90;;
61640;SDS011;62201;49.966;8.342;2023-04-15T10:42:07;1.48;;;0.80;;
61640;SDS011;62201;49.966;8.342;2023-04-15T10:44:37;2.67;;;0.90;;
61640;SDS011;62201;49.966;8.342;2023-04-15T10:47:13;2.92;;;0.75;;
61640;SDS011;62201;49.966;8.342;2023-04-15T10:49:44;2.95;;;0.90;;
61640;SDS011;62201;49.966;8.342;2023-04-15T10:52:11;3.70;;;0.75;;
61640;SDS011;62201;49.966;8.342;2023-04-15T10:54:38;2.95;;;0.98;;
61640;SDS011;62201;49.966;8.342;2023-04-15T10:59:35;2.88;;;0.90;;
61640;SDS011;62201;49.966;8.342;2023-04-15T11:02:03;2.17;;;0.95;;
61640;SDS011;62201;49.966;8.342;2023-04-15T11:07:34;4.43;;;0.80;;
61640;SDS011;62201;49.966;8.342;2023-04-15T11:10:03;4.43;;;1.10;;
61640;SDS011;62201;49.966;8.342;2023-04-15T11:12:58;4.05;;;1.10;;
61640;SDS011;62201;49.966;8.342;2023-04-15T11:18:07;2.42;;;0.90;;
61640;SDS011;62201;49.966;8.342;2023-04-15T11:20:39;3.75;;;1.08;;
61640;SDS011;62201;49.966;8.342;2023-04-15T11:23:06;4.28;;;1.27;;
61640;SDS011;62201;49.966;8.342;2023-04-15T11:25:33;2.65;;;1.00;;
61640;SDS011;62201;49.966;8.342;2023-04-15T11:28:00;2.95;;;0.90;;
61640;SDS011;62201;49.966;8.342;2023-04-15T11:30:28;2.90;;;0.88;;
61640;SDS011;62201;49.966;8.342;2023-04-15T11:33:00;5.90;;;1.17;;
61640;SDS011;62201;49.966;8.342;2023-04-15T11:35:27;4.22;;;1.20;;
61640;SDS011;62201;49.966;8.342;2023-04-15T11:37:54;3.38;;;0.90;;
61640;SDS011;62201;49.966;8.342;2023-04-15T11:40:23;5.07;;;1.20;;
61640;SDS011;62201;49.966;8.342;2023-04-15T11:43:04;2.28;;;1.00;;
61640;SDS011;62201;49.966;8.342;2023-04-15T11:45:38;3.58;;;0.90;;
61640;SDS011;62201;49.966;8.342;2023-04-15T11:48:15;3.05;;;1.15;;
61640;SDS011;62201;49.966;8.342;2023-04-15T11:50:41;3.03;;;0.90;;
61640;SDS011;62201;49.966;8.342;2023-04-15T11:53:10;2.45;;;1.00;;
61640;SDS011;62201;49.966;8.342;2023-04-15T11:55:54;2.17;;;0.75;;
61640;SDS011;62201;49.966;8.342;2023-04-15T11:58:21;3.55;;;0.68;;
61640;SDS011;62201;49.966;8.342;2023-04-15T12:00:50;2.42;;;0.63;;
61640;SDS011;62201;49.966;8.342;2023-04-15T12:03:18;3.15;;;0.57;;
61640;SDS011;62201;49.966;8.342;2023-04-15T12:06:02;3.03;;;0.63;;
61640;SDS011;62201;49.966;8.342;2023-04-15T12:16:23;1.98;;;0.52;;
61640;SDS011;62201;49.966;8.342;2023-04-15T12:18:52;1.02;;;0.50;;
61640;SDS011;62201;49.966;8.342;2023-04-15T12:21:23;1.60;;;0.85;;
61640;SDS011;62201;49.966;8.342;2023-04-15T12:23:50;1.20;;;0.52;;
61640;SDS011;62201;49.966;8.342;2023-04-15T12:26:26;2.22;;;0.70;;
61640;SDS011;62201;49.966;8.342;2023-04-15T12:28:54;2.03;;;0.60;;
61640;SDS011;62201;49.966;8.342;2023-04-15T12:31:21;1.02;;;0.70;;
61640;SDS011;62201;49.966;8.342;2023-04-15T12:33:47;3.20;;;0.80;;
61640;SDS011;62201;49.966;8.342;2023-04-15T12:36:13;1.35;;;0.75;;
61640;SDS011;62201;49.966;8.342;2023-04-15T12:39:00;1.20;;;0.70;;
61640;SDS011;62201;49.966;8.342;2023-04-15T12:41:28;3.80;;;0.45;;
61640;SDS011;62201;49.966;8.342;2023-04-15T12:43:54;1.25;;;0.60;;
61640;SDS011;62201;49.966;8.342;2023-04-15T12:46:19;0.95;;;0.60;;
61640;SDS011;62201;49.966;8.342;2023-04-15T12:48:45;1.08;;;0.50;;
61640;SDS011;62201;49.966;8.342;2023-04-15T12:51:11;1.88;;;0.68;;
61640;SDS011;62201;49.966;8.342;2023-04-15T12:53:37;3.25;;;0.70;;
61640;SDS011;62201;49.966;8.342;2023-04-15T12:56:03;1.00;;;0.50;;
61640;SDS011;62201;49.966;8.342;2023-04-15T12:58:28;0.88;;;0.50;;
61640;SDS011;62201;49.966;8.342;2023-04-15T13:00:53;1.27;;;0.63;;
61640;SDS011;62201;49.966;8.342;2023-04-15T13:03:19;2.15;;;0.70;;
61640;SDS011;62201;49.966;8.342;2023-04-15T13:05:44;1.48;;;0.77;;
61640;SDS011;62201;49.966;8.342;2023-04-15T13:08:10;0.50;;;0.40;;
61640;SDS011;62201;49.966;8.342;2023-04-15T13:10:35;1.02;;;0.60;;
61640;SDS011;62201;49.966;8.342;2023-04-15T13:13:01;0.88;;;0.70;;
61640;SDS011;62201;49.966;8.342;2023-04-15T13:15:27;3.22;;;0.60;;
61640;SDS011;62201;49.966;8.342;2023-04-15T13:17:53;0.98;;;0.60;;
61640;SDS011;62201;49.966;8.342;2023-04-15T13:20:18;1.27;;;0.70;;
61640;SDS011;62201;49.966;8.342;2023-04-15T13:22:43;1.08;;;0.65;;
61640;SDS011;62201;49.966;8.342;2023-04-15T13:25:09;1.77;;;0.93;;
61640;SDS011;62201;49.966;8.342;2023-04-15T13:27:35;1.50;;;0.80;;
61640;SDS011;62201;49.966;8.342;2023-04-15T13:30:02;1.33;;;0.70;;
61640;SDS011;62201;49.966;8.342;2023-04-15T13:32:28;0.93;;;0.68;;
61640;SDS011;62201;49.966;8.342;2023-04-15T13:34:53;0.73;;;0.50;;
61640;SDS011;62201;49.966;8.342;2023-04-15T13:37:21;0.88;;;0.65;;
61640;SDS011;62201;49.966;8.342;2023-04-15T13:39:50;0.98;;;0.77;;
61640;SDS011;62201;49.966;8.342;2023-04-15T13:42:15;1.85;;;1.10;;
61640;SDS011;62201;49.966;8.342;2023-04-15T13:44:41;1.80;;;1.10;;
61640;SDS011;62201;49.966;8.342;2023-04-15T13:47:06;2.30;;;1.10;;
61640;SDS011;62201;49.966;8.342;2023-04-15T13:49:32;1.92;;;0.90;;
61640;SDS011;62201;49.966;8.342;2023-04-15T13:51:57;2.67;;;0.82;;
61640;SDS011;62201;49.966;8.342;2023-04-15T13:54:23;2.70;;;0.80;;
61640;SDS011;62201;49.966;8.342;2023-04-15T13:56:48;0.60;;;0.60;;
61640;SDS011;62201;49.966;8.342;2023-04-15T13:59:13;2.72;;;0.80;;
61640;SDS011;62201;49.966;8.342;2023-04-15T14:01:39;3.92;;;1.10;;
61640;SDS011;62201;49.966;8.342;2023-04-15T14:04:05;2.00;;;1.17;;
61640;SDS011;62201;49.966;8.342;2023-04-15T14:06:30;2.00;;;1.17;;
61640;SDS011;62201;49.966;8.342;2023-04-15T14:08:56;2.80;;;0.90;;
61640;SDS011;62201;49.966;8.342;2023-04-15T14:11:21;1.50;;;1.30;;
61640;SDS011;62201;49.966;8.342;2023-04-15T14:13:47;1.50;;;1.00;;
61640;SDS011;62201;49.966;8.342;2023-04-15T14:16:12;1.15;;;1.00;;
61640;SDS011;62201;49.966;8.342;2023-04-15T14:18:38;1.60;;;0.93;;
61640;SDS011;62201;49.966;8.342;2023-04-15T14:21:04;1.95;;;1.20;;
61640;SDS011;62201;49.966;8.342;2023-04-15T14:23:30;1.17;;;1.00;;
61640;SDS011;62201;49.966;8.342;2023-04-15T14:25:55;0.95;;;0.90;;
61640;SDS011;62201;49.966;8.342;2023-04-15T14:28:20;1.00;;;0.70;;
61640;SDS011;62201;49.966;8.342;2023-04-15T14:30:46;0.70;;;0.68;;
61640;SDS011;62201;49.966;8.342;2023-04-15T14:33:11;0.95;;;0.75;;
61640;SDS011;62201;49.966;8.342;2023-04-15T14:35:37;0.60;;;0.60;;
61640;SDS011;62201;49.966;8.342;2023-04-15T14:38:03;3.50;;;0.50;;
61640;SDS011;62201;49.966;8.342;2023-04-15T14:40:30;0.93;;;0.68;;
61640;SDS011;62201;49.966;8.342;2023-04-15T14:42:55;0.70;;;0.60;;
61640;SDS011;62201;49.966;8.342;2023-04-15T14:45:21;0.70;;;0.60;;
61640;SDS011;62201;49.966;8.342;2023-04-15T14:47:46;0.75;;;0.70;;
61640;SDS011;62201;49.966;8.342;2023-04-15T14:50:12;1.83;;;0.77;;
61640;SDS011;62201;49.966;8.342;2023-04-15T14:52:37;1.10;;;1.00;;
61640;SDS011;62201;49.966;8.342;2023-04-15T14:55:12;1.05;;;0.80;;
61640;SDS011;62201;49.966;8.342;2023-04-15T14:57:41;1.00;;;0.90;;
61640;SDS011;62201;49.966;8.342;2023-04-15T15:00:07;0.90;;;0.80;;
61640;SDS011;62201;49.966;8.342;2023-04-15T15:02:34;1.00;;;0.90;;